sensor_id;sensor_type;location;lat;lon;timestamp;P1;durP1;ratioP1;P2;durP2;ratioP2
30824;SDS011;17550;45.486;12.222;2023-05-24T00:00:33;12.82;;;8.30;;
30824;SDS011;17550;45.486;12.222;2023-05-24T00:02:59;12.98;;;7.97;;
30824;SDS011;17550;45.486;12.222;2023-05-24T00:05:24;11.05;;;7.55;;
30824;SDS011;17550;45.486;12.222;2023-05-24T00:07:50;14.88;;;8.38;;
30824;SDS011;17550;45.486;12.222;2023-05-24T00:10:16;12.80;;;8.27;;
30824;SDS011;17550;45.486;12.222;2023-05-24T00:12:42;12.68;;;8.45;;
30824;SDS011;17550;45.486;12.222;2023-05-24T00:15:08;12.75;;;9.60;;
30824;SDS011;17550;45.486;12.222;2023-05-24T00:17:33;18.10;;;11.30;;
30824;SDS011;17550;45.486;12.222;2023-05-24T00:20:06;14.13;;;11.05;;
30824;SDS011;17550;45.486;12.222;2023-05-24T00:22:34;15.82;;;10.70;;
30824;SDS011;17550;45.486;12.222;2023-05-24T00:25:01;13.45;;;9.88;;
30824;SDS011;17550;45.486;12.222;2023-05-24T00:27:27;17.85;;;12.02;;
30824;SDS011;17550;45.486;12.222;2023-05-24T00:29:53;18.95;;;11.85;;
30824;SDS011;17550;45.486;12.222;2023-05-24T00:32:18;18.95;;;11.85;;
30824;SDS011;17550;45.486;12.222;2023-05-24T00:34:44;13.55;;;11.32;;
30824;SDS011;17550;45.486;12.222;2023-05-24T00:37:10;22.45;;;12.38;;
30824;SDS011;17550;45.486;12.222;2023-05-24T00:39:36;21.48;;;12.20;;
30824;SDS011;17550;45.486;12.222;2023-05-24T00:42:02;15.30;;;10.70;;
30824;SDS011;17550;45.486;12.222;2023-05-24T00:44:30;19.33;;;10.88;;
30824;SDS011;17550;45.486;12.222;2023-05-24T00:46:56;17.92;;;11.98;;
30824;SDS011;17550;45.486;12.222;2023-05-24T00:49:21;16.92;;;11.85;;
30824;SDS011;17550;45.486;12.222;2023-05-24T00:51:48;18.42;;;11.57;;
30824;SDS011;17550;45.486;12.222;2023-05-24T00:54:15;23.00;;;12.20;;
30824;SDS011;17550;45.486;12.222;2023-05-24T00:56:41;18.45;;;11.48;;
30824;SDS011;17550;45.486;12.222;2023-05-24T00:59:07;14.40;;;10.82;;
30824;SDS011;17550;45.486;12.222;2023-05-24T01:01:33;15.77;;;12.00;;
30824;SDS011;17550;45.486;12.222;2023-05-24T01:04:01;17.67;;;11.82;;
30824;SDS011;17550;45.486;12.222;2023-05-24T01:06:28;15.68;;;10.93;;
30824;SDS011;17550;45.486;12.222;2023-05-24T01:22:37;18.17;;;11.52;;
30824;SDS011;17550;45.486;12.222;2023-05-24T01:27:55;20.17;;;11.93;;
30824;SDS011;17550;45.486;12.222;2023-05-24T01:30:23;22.42;;;11.82;;
30824;SDS011;17550;45.486;12.222;2023-05-24T01:32:51;16.45;;;12.18;;
30824;SDS011;17550;45.486;12.222;2023-05-24T01:35:17;14.95;;;11.18;;
30824;SDS011;17550;45.486;12.222;2023-05-24T01:37:43;19.25;;;10.82;;
30824;SDS011;17550;45.486;12.222;2023-05-24T01:40:09;16.58;;;11.93;;
30824;SDS011;17550;45.486;12.222;2023-05-24T01:42:39;17.35;;;11.98;;
30824;SDS011;17550;45.486;12.222;2023-05-24T01:45:24;20.67;;;12.32;;
30824;SDS011;17550;45.486;12.222;2023-05-24T01:48:03;18.77;;;12.17;;
30824;SDS011;17550;45.486;12.222;2023-05-24T01:51:04;17.77;;;12.63;;
30824;SDS011;17550;45.486;12.222;2023-05-24T01:53:38;22.05;;;12.18;;
30824;SDS011;17550;45.486;12.222;2023-05-24T01:56:08;15.57;;;11.68;;
30824;SDS011;17550;45.486;12.222;2023-05-24T01:58:36;18.23;;;11.32;;
30824;SDS011;17550;45.486;12.222;2023-05-24T02:01:05;15.60;;;12.35;;
30824;SDS011;17550;45.486;12.222;2023-05-24T02:03:32;18.70;;;12.10;;
30824;SDS011;17550;45.486;12.222;2023-05-24T02:05:57;19.40;;;12.57;;
30824;SDS011;17550;45.486;12.222;2023-05-24T02:08:23;17.30;;;12.70;;
30824;SDS011;17550;45.486;12.222;2023-05-24T02:10:49;15.82;;;11.63;;
30824;SDS011;17550;45.486;12.222;2023-05-24T02:13:15;18.23;;;12.38;;
30824;SDS011;17550;45.486;12.222;2023-05-24T02:15:42;21.40;;;12.30;;
30824;SDS011;17550;45.486;12.222;2023-05-24T02:18:08;19.73;;;12.88;;
30824;SDS011;17550;45.486;12.222;2023-05-24T02:20:35;20.75;;;12.85;;
30824;SDS011;17550;45.486;12.222;2023-05-24T02:23:02;13.88;;;11.77;;
30824;SDS011;17550;45.486;12.222;2023-05-24T02:25:28;19.27;;;12.77;;
30824;SDS011;17550;45.486;12.222;2023-05-24T02:27:55;22.15;;;12.82;;
30824;SDS011;17550;45.486;12.222;2023-05-24T02:30:22;19.10;;;13.35;;
30824;SDS011;17550;45.486;12.222;2023-05-24T02:32:47;16.33;;;12.93;;
30824;SDS011;17550;45.486;12.222;2023-05-24T02:35:13;17.75;;;12.48;;
30824;SDS011;17550;45.486;12.222;2023-05-24T02:37:39;18.52;;;11.80;;
30824;SDS011;17550;45.486;12.222;2023-05-24T02:40:05;16.45;;;12.43;;
30824;SDS011;17550;45.486;12.222;2023-05-24T02:42:31;22.00;;;13.18;;
30824;SDS011;17550;45.486;12.222;2023-05-24T02:44:57;22.75;;;13.88;;
30824;SDS011;17550;45.486;12.222;2023-05-24T02:47:23;21.23;;;13.57;;
30824;SDS011;17550;45.486;12.222;2023-05-24T02:49:51;17.23;;;12.20;;
30824;SDS011;17550;45.486;12.222;2023-05-24T02:52:17;22.08;;;13.38;;
30824;SDS011;17550;45.486;12.222;2023-05-24T02:54:45;21.52;;;12.05;;
30824;SDS011;17550;45.486;12.222;2023-05-24T02:57:11;15.82;;;12.75;;
30824;SDS011;17550;45.486;12.222;2023-05-24T02:59:37;20.15;;;13.68;;
30824;SDS011;17550;45.486;12.222;2023-05-24T03:02:03;21.85;;;14.82;;
30824;SDS011;17550;45.486;12.222;2023-05-24T03:04:29;22.83;;;15.07;;
30824;SDS011;17550;45.486;12.222;2023-05-24T03:06:54;28.73;;;15.70;;
30824;SDS011;17550;45.486;12.222;2023-05-24T03:09:20;21.48;;;15.20;;
30824;SDS011;17550;45.486;12.222;2023-05-24T03:11:46;19.77;;;15.57;;
30824;SDS011;17550;45.486;12.222;2023-05-24T03:14:12;21.92;;;15.40;;
30824;SDS011;17550;45.486;12.222;2023-05-24T03:16:37;21.30;;;14.52;;
30824;SDS011;17550;45.486;12.222;2023-05-24T03:19:03;19.02;;;14.65;;
30824;SDS011;17550;45.486;12.222;2023-05-24T03:21:29;25.65;;;17.27;;
30824;SDS011;17550;45.486;12.222;2023-05-24T03:23:56;27.05;;;16.27;;
30824;SDS011;17550;45.486;12.222;2023-05-24T03:26:22;19.08;;;15.23;;
30824;SDS011;17550;45.486;12.222;2023-05-24T03:28:47;21.27;;;15.63;;
30824;SDS011;17550;45.486;12.222;2023-05-24T03:31:15;20.98;;;16.13;;
30824;SDS011;17550;45.486;12.222;2023-05-24T03:33:41;21.17;;;15.45;;
30824;SDS011;17550;45.486;12.222;2023-05-24T03:36:07;20.42;;;16.80;;
30824;SDS011;17550;45.486;12.222;2023-05-24T03:38:36;27.70;;;19.13;;
30824;SDS011;17550;45.486;12.222;2023-05-24T03:41:01;25.35;;;18.63;;
30824;SDS011;17550;45.486;12.222;2023-05-24T03:43:27;32.15;;;19.52;;
30824;SDS011;17550;45.486;12.222;2023-05-24T03:45:53;28.77;;;19.70;;
30824;SDS011;17550;45.486;12.222;2023-05-24T03:48:19;29.17;;;19.17;;
30824;SDS011;17550;45.486;12.222;2023-05-24T03:50:45;25.35;;;18.83;;
30824;SDS011;17550;45.486;12.222;2023-05-24T03:53:11;27.02;;;19.33;;
30824;SDS011;17550;45.486;12.222;2023-05-24T03:55:37;26.15;;;18.42;;
30824;SDS011;17550;45.486;12.222;2023-05-24T03:58:03;29.77;;;18.73;;
30824;SDS011;17550;45.486;12.222;2023-05-24T04:00:28;25.50;;;20.60;;
30824;SDS011;17550;45.486;12.222;2023-05-24T04:02:54;27.88;;;18.92;;
30824;SDS011;17550;45.486;12.222;2023-05-24T04:05:20;27.05;;;18.60;;
30824;SDS011;17550;45.486;12.222;2023-05-24T04:07:50;26.05;;;17.58;;
30824;SDS011;17550;45.486;12.222;2023-05-24T04:10:16;25.23;;;18.25;;
30824;SDS011;17550;45.486;12.222;2023-05-24T04:12:42;24.50;;;16.83;;
30824;SDS011;17550;45.486;12.222;2023-05-24T04:15:09;26.25;;;15.88;;
30824;SDS011;17550;45.486;12.222;2023-05-24T04:17:39;24.80;;;15.68;;
30824;SDS011;17550;45.486;12.222;2023-05-24T04:20:07;23.77;;;15.40;;
30824;SDS011;17550;45.486;12.222;2023-05-24T04:22:34;19.73;;;13.55;;
30824;SDS011;17550;45.486;12.222;2023-05-24T04:25:02;21.17;;;13.90;;
30824;SDS011;17550;45.486;12.222;2023-05-24T04:27:29;26.20;;;13.02;;
30824;SDS011;17550;45.486;12.222;2023-05-24T04:29:55;14.35;;;11.63;;
30824;SDS011;17550;45.486;12.222;2023-05-24T04:32:24;18.98;;;13.38;;
30824;SDS011;17550;45.486;12.222;2023-05-24T04:34:50;22.17;;;11.63;;
30824;SDS011;17550;45.486;12.222;2023-05-24T04:37:16;17.10;;;11.07;;
30824;SDS011;17550;45.486;12.222;2023-05-24T04:39:43;16.05;;;10.43;;
30824;SDS011;17550;45.486;12.222;2023-05-24T04:42:09;16.33;;;10.02;;
30824;SDS011;17550;45.486;12.222;2023-05-24T04:44:36;17.13;;;10.13;;
30824;SDS011;17550;45.486;12.222;2023-05-24T04:47:04;12.82;;;9.20;;
30824;SDS011;17550;45.486;12.222;2023-05-24T04:49:32;18.80;;;9.95;;
30824;SDS011;17550;45.486;12.222;2023-05-24T04:51:58;18.02;;;9.85;;
30824;SDS011;17550;45.486;12.222;2023-05-24T04:54:24;14.05;;;8.77;;
30824;SDS011;17550;45.486;12.222;2023-05-24T04:56:50;15.85;;;9.27;;
30824;SDS011;17550;45.486;12.222;2023-05-24T04:59:16;13.90;;;9.50;;
30824;SDS011;17550;45.486;12.222;2023-05-24T05:01:41;18.75;;;11.52;;
30824;SDS011;17550;45.486;12.222;2023-05-24T05:04:07;20.67;;;11.32;;
30824;SDS011;17550;45.486;12.222;2023-05-24T05:06:33;15.93;;;10.93;;
30824;SDS011;17550;45.486;12.222;2023-05-24T05:09:03;12.65;;;9.30;;
30824;SDS011;17550;45.486;12.222;2023-05-24T05:11:36;20.95;;;10.45;;
30824;SDS011;17550;45.486;12.222;2023-05-24T05:14:02;14.32;;;9.88;;
30824;SDS011;17550;45.486;12.222;2023-05-24T05:16:28;19.02;;;9.95;;
30824;SDS011;17550;45.486;12.222;2023-05-24T05:18:54;14.55;;;10.30;;
30824;SDS011;17550;45.486;12.222;2023-05-24T05:21:20;16.17;;;10.32;;
30824;SDS011;17550;45.486;12.222;2023-05-24T05:23:45;17.23;;;10.77;;
30824;SDS011;17550;45.486;12.222;2023-05-24T05:26:11;11.82;;;9.05;;
30824;SDS011;17550;45.486;12.222;2023-05-24T05:28:37;17.70;;;10.25;;
30824;SDS011;17550;45.486;12.222;2023-05-24T05:31:02;16.67;;;10.38;;
30824;SDS011;17550;45.486;12.222;2023-05-24T05:33:31;14.98;;;10.23;;
30824;SDS011;17550;45.486;12.222;2023-05-24T05:35:57;19.98;;;10.32;;
30824;SDS011;17550;45.486;12.222;2023-05-24T05:38:23;19.67;;;10.45;;
30824;SDS011;17550;45.486;12.222;2023-05-24T05:40:49;14.80;;;10.48;;
30824;SDS011;17550;45.486;12.222;2023-05-24T05:43:15;20.38;;;10.93;;
30824;SDS011;17550;45.486;12.222;2023-05-24T05:45:41;17.13;;;11.32;;
30824;SDS011;17550;45.486;12.222;2023-05-24T05:48:06;19.33;;;11.63;;
30824;SDS011;17550;45.486;12.222;2023-05-24T05:50:32;19.63;;;12.63;;
30824;SDS011;17550;45.486;12.222;2023-05-24T05:52:58;24.05;;;13.52;;
30824;SDS011;17550;45.486;12.222;2023-05-24T05:55:23;19.85;;;12.27;;
30824;SDS011;17550;45.486;12.222;2023-05-24T05:57:49;15.02;;;11.70;;
30824;SDS011;17550;45.486;12.222;2023-05-24T06:00:15;19.27;;;11.38;;
30824;SDS011;17550;45.486;12.222;2023-05-24T06:02:41;19.90;;;12.90;;
30824;SDS011;17550;45.486;12.222;2023-05-24T06:05:06;24.25;;;13.27;;
30824;SDS011;17550;45.486;12.222;2023-05-24T06:07:32;22.08;;;12.82;;
30824;SDS011;17550;45.486;12.222;2023-05-24T06:09:59;18.83;;;12.85;;
30824;SDS011;17550;45.486;12.222;2023-05-24T06:12:25;18.60;;;12.50;;
30824;SDS011;17550;45.486;12.222;2023-05-24T06:14:51;17.63;;;12.13;;
30824;SDS011;17550;45.486;12.222;2023-05-24T06:17:16;25.00;;;12.02;;
30824;SDS011;17550;45.486;12.222;2023-05-24T06:19:43;20.13;;;12.50;;
30824;SDS011;17550;45.486;12.222;2023-05-24T06:22:08;16.23;;;11.45;;
30824;SDS011;17550;45.486;12.222;2023-05-24T06:24:34;24.25;;;12.75;;
30824;SDS011;17550;45.486;12.222;2023-05-24T06:27:00;18.30;;;11.13;;
30824;SDS011;17550;45.486;12.222;2023-05-24T06:29:26;25.90;;;11.57;;
30824;SDS011;17550;45.486;12.222;2023-05-24T06:31:52;16.13;;;11.27;;
30824;SDS011;17550;45.486;12.222;2023-05-24T06:34:18;18.95;;;10.52;;
30824;SDS011;17550;45.486;12.222;2023-05-24T06:36:47;17.10;;;10.57;;
30824;SDS011;17550;45.486;12.222;2023-05-24T06:39:15;19.00;;;10.85;;
30824;SDS011;17550;45.486;12.222;2023-05-24T06:41:42;14.77;;;10.32;;
30824;SDS011;17550;45.486;12.222;2023-05-24T06:44:08;16.92;;;10.88;;
30824;SDS011;17550;45.486;12.222;2023-05-24T06:46:34;15.68;;;9.90;;
30824;SDS011;17550;45.486;12.222;2023-05-24T06:49:00;15.57;;;10.32;;
30824;SDS011;17550;45.486;12.222;2023-05-24T06:51:26;13.90;;;9.43;;
30824;SDS011;17550;45.486;12.222;2023-05-24T06:53:51;17.70;;;8.80;;
30824;SDS011;17550;45.486;12.222;2023-05-24T06:56:17;14.98;;;9.43;;
30824;SDS011;17550;45.486;12.222;2023-05-24T06:58:43;13.98;;;8.70;;
30824;SDS011;17550;45.486;12.222;2023-05-24T07:01:09;13.48;;;9.38;;
30824;SDS011;17550;45.486;12.222;2023-05-24T07:03:35;14.60;;;8.88;;
30824;SDS011;17550;45.486;12.222;2023-05-24T07:06:01;11.25;;;7.70;;
30824;SDS011;17550;45.486;12.222;2023-05-24T07:08:27;15.00;;;8.63;;
30824;SDS011;17550;45.486;12.222;2023-05-24T07:10:53;21.45;;;8.40;;
30824;SDS011;17550;45.486;12.222;2023-05-24T07:13:20;18.20;;;9.32;;
30824;SDS011;17550;45.486;12.222;2023-05-24T07:15:46;13.75;;;8.68;;
30824;SDS011;17550;45.486;12.222;2023-05-24T07:18:12;14.68;;;8.73;;
30824;SDS011;17550;45.486;12.222;2023-05-24T07:20:38;17.70;;;9.10;;
30824;SDS011;17550;45.486;12.222;2023-05-24T07:23:03;12.88;;;8.10;;
30824;SDS011;17550;45.486;12.222;2023-05-24T07:25:30;17.77;;;9.80;;
30824;SDS011;17550;45.486;12.222;2023-05-24T07:27:57;14.88;;;8.68;;
30824;SDS011;17550;45.486;12.222;2023-05-24T07:30:23;16.38;;;9.05;;
30824;SDS011;17550;45.486;12.222;2023-05-24T07:32:48;12.43;;;8.25;;
30824;SDS011;17550;45.486;12.222;2023-05-24T07:35:15;12.85;;;8.20;;
30824;SDS011;17550;45.486;12.222;2023-05-24T07:37:41;18.50;;;7.38;;
30824;SDS011;17550;45.486;12.222;2023-05-24T07:40:07;15.10;;;9.25;;
30824;SDS011;17550;45.486;12.222;2023-05-24T07:42:39;11.60;;;8.45;;
30824;SDS011;17550;45.486;12.222;2023-05-24T07:45:05;17.90;;;8.05;;
30824;SDS011;17550;45.486;12.222;2023-05-24T07:47:34;18.90;;;8.95;;
30824;SDS011;17550;45.486;12.222;2023-05-24T07:50:00;17.52;;;8.10;;
30824;SDS011;17550;45.486;12.222;2023-05-24T07:52:25;16.15;;;8.13;;
30824;SDS011;17550;45.486;12.222;2023-05-24T07:54:52;15.32;;;8.32;;
30824;SDS011;17550;45.486;12.222;2023-05-24T07:57:18;13.35;;;8.13;;
30824;SDS011;17550;45.486;12.222;2023-05-24T07:59:44;11.95;;;7.28;;
30824;SDS011;17550;45.486;12.222;2023-05-24T08:02:10;11.63;;;7.25;;
30824;SDS011;17550;45.486;12.222;2023-05-24T08:04:37;13.73;;;7.65;;
30824;SDS011;17550;45.486;12.222;2023-05-24T08:07:04;16.48;;;7.72;;
30824;SDS011;17550;45.486;12.222;2023-05-24T08:09:30;12.02;;;8.30;;
30824;SDS011;17550;45.486;12.222;2023-05-24T08:12:04;13.95;;;9.00;;
30824;SDS011;17550;45.486;12.222;2023-05-24T08:14:31;19.25;;;8.00;;
30824;SDS011;17550;45.486;12.222;2023-05-24T08:16:57;14.00;;;8.75;;
30824;SDS011;17550;45.486;12.222;2023-05-24T08:19:26;16.05;;;9.13;;
30824;SDS011;17550;45.486;12.222;2023-05-24T08:21:55;18.02;;;11.00;;
30824;SDS011;17550;45.486;12.222;2023-05-24T08:24:21;19.08;;;11.27;;
30824;SDS011;17550;45.486;12.222;2023-05-24T08:26:50;22.30;;;13.20;;
30824;SDS011;17550;45.486;12.222;2023-05-24T08:29:16;20.25;;;12.02;;
30824;SDS011;17550;45.486;12.222;2023-05-24T08:31:42;19.83;;;14.50;;
30824;SDS011;17550;45.486;12.222;2023-05-24T08:34:08;20.45;;;11.23;;
30824;SDS011;17550;45.486;12.222;2023-05-24T08:36:34;23.65;;;12.23;;
30824;SDS011;17550;45.486;12.222;2023-05-24T08:39:01;16.95;;;10.48;;
30824;SDS011;17550;45.486;12.222;2023-05-24T08:41:27;13.43;;;9.02;;
30824;SDS011;17550;45.486;12.222;2023-05-24T08:43:53;13.25;;;7.40;;
30824;SDS011;17550;45.486;12.222;2023-05-24T08:46:24;12.55;;;5.88;;
30824;SDS011;17550;45.486;12.222;2023-05-24T08:48:50;7.10;;;5.00;;
30824;SDS011;17550;45.486;12.222;2023-05-24T08:51:16;8.18;;;5.40;;
30824;SDS011;17550;45.486;12.222;2023-05-24T08:53:45;10.85;;;5.72;;
30824;SDS011;17550;45.486;12.222;2023-05-24T08:56:17;6.90;;;5.28;;
30824;SDS011;17550;45.486;12.222;2023-05-24T08:58:43;11.43;;;5.40;;
30824;SDS011;17550;45.486;12.222;2023-05-24T09:01:12;10.98;;;6.00;;
30824;SDS011;17550;45.486;12.222;2023-05-24T09:03:39;11.23;;;6.28;;
30824;SDS011;17550;45.486;12.222;2023-05-24T09:06:06;8.90;;;6.50;;
30824;SDS011;17550;45.486;12.222;2023-05-24T09:08:35;12.15;;;6.82;;
30824;SDS011;17550;45.486;12.222;2023-05-24T09:11:02;10.38;;;6.40;;
30824;SDS011;17550;45.486;12.222;2023-05-24T09:13:31;10.35;;;6.90;;
30824;SDS011;17550;45.486;12.222;2023-05-24T09:16:01;10.05;;;7.38;;
30824;SDS011;17550;45.486;12.222;2023-05-24T09:18:27;16.00;;;7.80;;
30824;SDS011;17550;45.486;12.222;2023-05-24T09:20:53;13.30;;;8.38;;
30824;SDS011;17550;45.486;12.222;2023-05-24T09:23:19;15.75;;;8.43;;
30824;SDS011;17550;45.486;12.222;2023-05-24T09:25:45;13.40;;;8.23;;
30824;SDS011;17550;45.486;12.222;2023-05-24T09:28:12;15.40;;;7.30;;
30824;SDS011;17550;45.486;12.222;2023-05-24T09:30:43;11.13;;;7.47;;
30824;SDS011;17550;45.486;12.222;2023-05-24T09:33:09;13.48;;;8.15;;
30824;SDS011;17550;45.486;12.222;2023-05-24T09:35:36;14.65;;;8.57;;
30824;SDS011;17550;45.486;12.222;2023-05-24T09:38:14;15.75;;;11.02;;
30824;SDS011;17550;45.486;12.222;2023-05-24T09:40:44;17.50;;;10.88;;
30824;SDS011;17550;45.486;12.222;2023-05-24T09:43:10;20.02;;;12.85;;
30824;SDS011;17550;45.486;12.222;2023-05-24T09:45:45;17.65;;;12.38;;
30824;SDS011;17550;45.486;12.222;2023-05-24T09:48:13;16.60;;;12.18;;
30824;SDS011;17550;45.486;12.222;2023-05-24T09:50:44;16.95;;;11.30;;
30824;SDS011;17550;45.486;12.222;2023-05-24T09:53:29;15.85;;;10.85;;
30824;SDS011;17550;45.486;12.222;2023-05-24T09:55:58;20.67;;;12.38;;
30824;SDS011;17550;45.486;12.222;2023-05-24T09:58:31;18.65;;;10.35;;
30824;SDS011;17550;45.486;12.222;2023-05-24T10:01:04;14.75;;;10.18;;
30824;SDS011;17550;45.486;12.222;2023-05-24T10:03:52;15.95;;;9.85;;
30824;SDS011;17550;45.486;12.222;2023-05-24T10:06:19;18.98;;;9.90;;
30824;SDS011;17550;45.486;12.222;2023-05-24T10:08:51;22.13;;;9.65;;
30824;SDS011;17550;45.486;12.222;2023-05-24T10:11:19;14.77;;;9.07;;
30824;SDS011;17550;45.486;12.222;2023-05-24T10:13:46;14.32;;;6.97;;
30824;SDS011;17550;45.486;12.222;2023-05-24T10:16:13;15.85;;;8.40;;
30824;SDS011;17550;45.486;12.222;2023-05-24T10:18:39;15.07;;;7.13;;
30824;SDS011;17550;45.486;12.222;2023-05-24T10:21:06;9.38;;;6.05;;
30824;SDS011;17550;45.486;12.222;2023-05-24T10:23:32;13.07;;;7.38;;
30824;SDS011;17550;45.486;12.222;2023-05-24T10:26:07;16.60;;;7.15;;
30824;SDS011;17550;45.486;12.222;2023-05-24T10:28:43;13.23;;;6.70;;
30824;SDS011;17550;45.486;12.222;2023-05-24T10:31:16;13.85;;;5.78;;
30824;SDS011;17550;45.486;12.222;2023-05-24T10:33:52;14.90;;;6.65;;
30824;SDS011;17550;45.486;12.222;2023-05-24T10:36:20;8.45;;;6.00;;
30824;SDS011;17550;45.486;12.222;2023-05-24T10:38:46;10.02;;;6.03;;
30824;SDS011;17550;45.486;12.222;2023-05-24T10:41:12;8.10;;;6.10;;
30824;SDS011;17550;45.486;12.222;2023-05-24T10:43:38;8.30;;;6.43;;
30824;SDS011;17550;45.486;12.222;2023-05-24T10:46:04;9.63;;;5.78;;
30824;SDS011;17550;45.486;12.222;2023-05-24T10:48:37;11.73;;;6.50;;
30824;SDS011;17550;45.486;12.222;2023-05-24T10:54:14;9.80;;;6.18;;
30824;SDS011;17550;45.486;12.222;2023-05-24T10:56:47;12.05;;;6.70;;
30824;SDS011;17550;45.486;12.222;2023-05-24T11:02:09;12.18;;;6.57;;
30824;SDS011;17550;45.486;12.222;2023-05-24T11:04:39;11.30;;;6.63;;
30824;SDS011;17550;45.486;12.222;2023-05-24T11:07:07;9.30;;;6.88;;
30824;SDS011;17550;45.486;12.222;2023-05-24T11:09:34;13.02;;;6.60;;
30824;SDS011;17550;45.486;12.222;2023-05-24T11:12:02;7.43;;;6.03;;
30824;SDS011;17550;45.486;12.222;2023-05-24T11:14:33;10.85;;;7.70;;
30824;SDS011;17550;45.486;12.222;2023-05-24T11:17:03;13.55;;;7.80;;
30824;SDS011;17550;45.486;12.222;2023-05-24T11:19:52;13.63;;;6.90;;
30824;SDS011;17550;45.486;12.222;2023-05-24T11:22:22;14.63;;;6.30;;
30824;SDS011;17550;45.486;12.222;2023-05-24T11:24:50;11.23;;;7.20;;
30824;SDS011;17550;45.486;12.222;2023-05-24T11:27:17;18.27;;;8.18;;
30824;SDS011;17550;45.486;12.222;2023-05-24T11:29:43;12.13;;;7.72;;
30824;SDS011;17550;45.486;12.222;2023-05-24T11:32:14;10.50;;;7.75;;
30824;SDS011;17550;45.486;12.222;2023-05-24T11:34:40;14.63;;;8.05;;
30824;SDS011;17550;45.486;12.222;2023-05-24T11:37:09;12.98;;;6.65;;
30824;SDS011;17550;45.486;12.222;2023-05-24T11:39:35;15.05;;;7.28;;
30824;SDS011;17550;45.486;12.222;2023-05-24T11:42:08;10.95;;;6.65;;
30824;SDS011;17550;45.486;12.222;2023-05-24T11:44:34;12.95;;;7.07;;
30824;SDS011;17550;45.486;12.222;2023-05-24T11:47:05;13.07;;;7.55;;
30824;SDS011;17550;45.486;12.222;2023-05-24T11:49:31;12.43;;;7.25;;
30824;SDS011;17550;45.486;12.222;2023-05-24T11:51:58;11.95;;;6.47;;
30824;SDS011;17550;45.486;12.222;2023-05-24T11:54:24;12.32;;;7.13;;
30824;SDS011;17550;45.486;12.222;2023-05-24T11:56:51;10.25;;;6.53;;
30824;SDS011;17550;45.486;12.222;2023-05-24T11:59:25;13.93;;;6.60;;
30824;SDS011;17550;45.486;12.222;2023-05-24T12:02:04;9.70;;;6.82;;
30824;SDS011;17550;45.486;12.222;2023-05-24T12:04:31;12.18;;;6.70;;
30824;SDS011;17550;45.486;12.222;2023-05-24T12:06:58;10.30;;;7.18;;
30824;SDS011;17550;45.486;12.222;2023-05-24T12:09:24;11.88;;;6.75;;
30824;SDS011;17550;45.486;12.222;2023-05-24T12:11:51;8.65;;;6.25;;
30824;SDS011;17550;45.486;12.222;2023-05-24T12:14:24;8.63;;;6.93;;
30824;SDS011;17550;45.486;12.222;2023-05-24T12:16:53;14.68;;;7.00;;
30824;SDS011;17550;45.486;12.222;2023-05-24T12:19:23;16.90;;;6.95;;
30824;SDS011;17550;45.486;12.222;2023-05-24T12:21:57;15.65;;;7.25;;
30824;SDS011;17550;45.486;12.222;2023-05-24T12:24:23;12.70;;;7.10;;
30824;SDS011;17550;45.486;12.222;2023-05-24T12:26:50;13.00;;;6.88;;
30824;SDS011;17550;45.486;12.222;2023-05-24T12:29:16;15.98;;;7.20;;
30824;SDS011;17550;45.486;12.222;2023-05-24T12:31:45;13.70;;;6.68;;
30824;SDS011;17550;45.486;12.222;2023-05-24T12:34:12;11.15;;;6.22;;
30824;SDS011;17550;45.486;12.222;2023-05-24T12:36:40;14.05;;;6.30;;
30824;SDS011;17550;45.486;12.222;2023-05-24T12:39:26;9.30;;;7.00;;
30824;SDS011;17550;45.486;12.222;2023-05-24T12:41:58;8.48;;;6.05;;
30824;SDS011;17550;45.486;12.222;2023-05-24T12:44:26;11.23;;;5.85;;
30824;SDS011;17550;45.486;12.222;2023-05-24T12:46:53;8.10;;;5.50;;
30824;SDS011;17550;45.486;12.222;2023-05-24T12:49:20;8.18;;;5.57;;
30824;SDS011;17550;45.486;12.222;2023-05-24T12:51:46;9.93;;;5.60;;
30824;SDS011;17550;45.486;12.222;2023-05-24T12:54:13;15.18;;;5.93;;
30824;SDS011;17550;45.486;12.222;2023-05-24T12:56:39;9.05;;;5.70;;
30824;SDS011;17550;45.486;12.222;2023-05-24T12:59:04;13.40;;;6.30;;
30824;SDS011;17550;45.486;12.222;2023-05-24T13:01:30;8.77;;;5.28;;
30824;SDS011;17550;45.486;12.222;2023-05-24T13:03:56;15.73;;;6.15;;
30824;SDS011;17550;45.486;12.222;2023-05-24T13:06:23;10.15;;;5.15;;
30824;SDS011;17550;45.486;12.222;2023-05-24T13:08:49;9.18;;;5.10;;
30824;SDS011;17550;45.486;12.222;2023-05-24T13:11:14;9.55;;;5.60;;
30824;SDS011;17550;45.486;12.222;2023-05-24T13:13:42;12.68;;;5.60;;
30824;SDS011;17550;45.486;12.222;2023-05-24T13:16:08;12.30;;;5.68;;
30824;SDS011;17550;45.486;12.222;2023-05-24T13:18:35;11.20;;;5.75;;
30824;SDS011;17550;45.486;12.222;2023-05-24T13:21:01;11.20;;;5.38;;
30824;SDS011;17550;45.486;12.222;2023-05-24T13:23:29;11.55;;;5.55;;
30824;SDS011;17550;45.486;12.222;2023-05-24T13:25:56;12.85;;;5.90;;
30824;SDS011;17550;45.486;12.222;2023-05-24T13:28:22;11.13;;;5.88;;
30824;SDS011;17550;45.486;12.222;2023-05-24T13:30:48;12.35;;;5.10;;
30824;SDS011;17550;45.486;12.222;2023-05-24T13:33:14;10.25;;;5.93;;
30824;SDS011;17550;45.486;12.222;2023-05-24T13:35:40;9.13;;;5.53;;
30824;SDS011;17550;45.486;12.222;2023-05-24T13:38:05;15.13;;;5.63;;
30824;SDS011;17550;45.486;12.222;2023-05-24T13:40:32;11.10;;;5.47;;
30824;SDS011;17550;45.486;12.222;2023-05-24T13:42:57;12.43;;;5.90;;
30824;SDS011;17550;45.486;12.222;2023-05-24T13:45:23;10.73;;;5.53;;
30824;SDS011;17550;45.486;12.222;2023-05-24T13:47:49;10.50;;;5.57;;
30824;SDS011;17550;45.486;12.222;2023-05-24T13:50:16;15.68;;;6.15;;
30824;SDS011;17550;45.486;12.222;2023-05-24T13:52:42;11.30;;;5.72;;
30824;SDS011;17550;45.486;12.222;2023-05-24T13:55:08;8.85;;;5.75;;
30824;SDS011;17550;45.486;12.222;2023-05-24T13:57:34;12.93;;;5.10;;
30824;SDS011;17550;45.486;12.222;2023-05-24T14:00:00;10.52;;;5.65;;
30824;SDS011;17550;45.486;12.222;2023-05-24T14:02:27;14.02;;;5.93;;
30824;SDS011;17550;45.486;12.222;2023-05-24T14:04:52;10.20;;;5.50;;
30824;SDS011;17550;45.486;12.222;2023-05-24T14:07:19;6.75;;;5.28;;
30824;SDS011;17550;45.486;12.222;2023-05-24T14:09:46;8.50;;;5.72;;
30824;SDS011;17550;45.486;12.222;2023-05-24T14:12:12;11.57;;;5.80;;
30824;SDS011;17550;45.486;12.222;2023-05-24T14:14:38;9.73;;;5.40;;
30824;SDS011;17550;45.486;12.222;2023-05-24T14:17:03;11.13;;;6.03;;
30824;SDS011;17550;45.486;12.222;2023-05-24T14:19:29;10.75;;;5.70;;
30824;SDS011;17550;45.486;12.222;2023-05-24T14:21:55;9.02;;;5.43;;
30824;SDS011;17550;45.486;12.222;2023-05-24T14:24:21;13.02;;;5.78;;
30824;SDS011;17550;45.486;12.222;2023-05-24T14:26:47;12.88;;;5.15;;
30824;SDS011;17550;45.486;12.222;2023-05-24T14:29:13;12.93;;;6.10;;
30824;SDS011;17550;45.486;12.222;2023-05-24T14:31:39;7.85;;;5.68;;
30824;SDS011;17550;45.486;12.222;2023-05-24T14:34:08;9.40;;;5.43;;
30824;SDS011;17550;45.486;12.222;2023-05-24T14:36:37;11.95;;;6.07;;
30824;SDS011;17550;45.486;12.222;2023-05-24T14:39:04;7.75;;;5.40;;